createdAt,value
2018-07-09T00:01:00.917Z,20.79
2018-07-09T00:03:29.913Z,20.80
2018-07-09T00:05:58.855Z,20.82
2018-07-09T00:08:27.820Z,20.81
2018-07-09T00:10:59.649Z,20.79
2018-07-09T00:13:29.013Z,20.71
2018-07-09T00:15:58.147Z,20.66
2018-07-09T00:18:27.081Z,20.60
2018-07-09T00:20:56.114Z,20.62
2018-07-09T00:23:25.006Z,20.60
2018-07-09T00:25:54.627Z,20.57
2018-07-09T00:28:24.049Z,20.56
2018-07-09T00:30:52.982Z,20.50
2018-07-09T00:33:22.223Z,20.44
2018-07-09T00:35:51.178Z,20.38
2018-07-09T00:38:20.490Z,20.33
2018-07-09T00:40:49.380Z,20.28
2018-07-09T00:43:18.282Z,20.23
2018-07-09T00:45:47.193Z,20.17
2018-07-09T00:48:16.118Z,20.13
2018-07-09T00:50:45.023Z,20.11
2018-07-09T00:53:14.018Z,20.04
2018-07-09T00:55:42.932Z,20.04
2018-07-09T00:58:11.871Z,19.98
2018-07-09T01:00:40.769Z,19.93
2018-07-09T01:03:09.714Z,19.92
2018-07-09T01:05:38.600Z,19.89
2018-07-09T01:08:07.517Z,19.88
2018-07-09T01:10:46.696Z,19.80
2018-07-09T01:13:15.614Z,19.70
2018-07-09T01:15:44.537Z,19.70
2018-07-09T01:18:13.500Z,19.73
2018-07-09T01:20:42.405Z,19.76
2018-07-09T01:23:11.295Z,19.76
2018-07-09T01:25:40.208Z,19.75
2018-07-09T01:28:09.141Z,19.71
2018-07-09T01:30:38.072Z,19.68
2018-07-09T01:33:06.976Z,19.66
2018-07-09T01:35:35.954Z,19.64
2018-07-09T01:38:05.038Z,19.57
2018-07-09T01:40:33.937Z,19.54
2018-07-09T01:43:02.861Z,19.53
2018-07-09T01:45:31.783Z,19.53
2018-07-09T01:48:00.711Z,19.54
2018-07-09T01:50:29.612Z,19.56
2018-07-09T01:52:58.531Z,19.52
2018-07-09T01:55:27.434Z,19.50
2018-07-09T01:57:56.322Z,19.51
2018-07-09T02:00:25.227Z,19.53
2018-07-09T02:02:54.150Z,19.52
2018-07-09T02:05:23.044Z,19.51
2018-07-09T02:07:52.024Z,19.57
2018-07-09T02:10:20.940Z,19.59
2018-07-09T02:12:49.915Z,19.61
2018-07-09T02:15:18.867Z,19.64
2018-07-09T02:17:47.928Z,19.67
2018-07-09T02:20:16.840Z,19.64
2018-07-09T02:22:45.804Z,19.61
2018-07-09T02:25:14.684Z,19.64
2018-07-09T02:27:43.592Z,19.63
2018-07-09T02:30:12.570Z,19.66
2018-07-09T02:32:41.478Z,19.63
2018-07-09T02:35:10.363Z,19.64
2018-07-09T02:37:39.253Z,19.62
2018-07-09T02:40:08.197Z,19.61
2018-07-09T02:42:37.113Z,19.61
2018-07-09T02:45:06.261Z,19.61
2018-07-09T02:47:35.183Z,19.55
2018-07-09T02:50:04.136Z,19.48
2018-07-09T02:52:33.185Z,19.49
2018-07-09T02:55:02.101Z,19.43
2018-07-09T02:57:31.037Z,19.39
2018-07-09T02:59:59.992Z,19.36
2018-07-09T03:02:28.897Z,19.33
2018-07-09T03:04:57.803Z,19.30
2018-07-09T03:07:26.718Z,19.23
2018-07-09T03:09:55.642Z,19.25
2018-07-09T03:12:24.550Z,19.27
2018-07-09T03:14:53.457Z,19.32
2018-07-09T03:17:22.382Z,19.32
2018-07-09T03:19:51.305Z,19.28
2018-07-09T03:22:20.210Z,19.25
2018-07-09T03:24:49.101Z,19.27
2018-07-09T03:27:18.050Z,19.22
2018-07-09T03:29:48.015Z,19.13
2018-07-09T03:32:16.925Z,19.16
2018-07-09T03:34:45.912Z,19.15
2018-07-09T03:37:14.894Z,19.08
2018-07-09T03:39:43.785Z,19.09
2018-07-09T03:42:12.698Z,19.16
2018-07-09T03:44:41.679Z,19.11
2018-07-09T03:47:10.594Z,19.00
2018-07-09T03:49:39.496Z,18.97
2018-07-09T03:52:08.430Z,18.97
2018-07-09T03:54:37.377Z,18.96
2018-07-09T03:57:06.372Z,18.84
2018-07-09T03:59:35.353Z,18.79
2018-07-09T04:02:04.295Z,18.77
2018-07-09T04:04:33.230Z,18.76
2018-07-09T04:07:02.183Z,18.72
2018-07-09T04:09:31.128Z,18.75
2018-07-09T04:12:00.062Z,18.74
2018-07-09T04:14:29.060Z,18.73
2018-07-09T04:16:57.960Z,18.76
2018-07-09T04:19:26.864Z,18.83
2018-07-09T04:21:56.145Z,18.87
2018-07-09T04:24:25.045Z,18.91
2018-07-09T04:26:54.241Z,18.95
2018-07-09T04:29:23.182Z,19.01
2018-07-09T04:31:52.158Z,19.17
2018-07-09T04:34:21.044Z,19.24
2018-07-09T04:36:49.995Z,19.32
2018-07-09T04:39:18.912Z,19.27
2018-07-09T04:41:47.803Z,19.42
2018-07-09T04:44:16.787Z,19.42
2018-07-09T04:46:45.744Z,19.38
2018-07-09T04:49:14.652Z,19.32
2018-07-09T04:51:43.564Z,19.41
2018-07-09T04:54:13.226Z,19.43
2018-07-09T04:56:42.173Z,19.56
2018-07-09T04:59:11.146Z,19.65
2018-07-09T05:01:40.214Z,19.59
2018-07-09T05:04:09.137Z,19.58
2018-07-09T05:06:38.053Z,19.52
2018-07-09T05:09:07.276Z,19.50
2018-07-09T05:11:36.219Z,19.52
2018-07-09T05:14:05.157Z,19.43
2018-07-09T05:16:34.051Z,19.41
2018-07-09T05:19:02.989Z,19.54
2018-07-09T05:21:31.882Z,19.56
2018-07-09T05:24:00.800Z,19.57
2018-07-09T05:26:29.730Z,19.75
2018-07-09T05:28:58.652Z,19.83
2018-07-09T05:31:27.735Z,19.84
2018-07-09T05:33:56.656Z,19.91
2018-07-09T05:36:25.581Z,20.11
2018-07-09T05:38:54.518Z,20.09
2018-07-09T05:41:23.460Z,20.26
2018-07-09T05:43:52.413Z,20.15
2018-07-09T05:46:21.457Z,20.20
2018-07-09T05:48:50.472Z,20.23
2018-07-09T05:51:19.425Z,20.35
2018-07-09T05:53:48.354Z,20.59
2018-07-09T05:56:17.273Z,20.84
2018-07-09T05:58:46.203Z,21.02
2018-07-09T06:01:15.156Z,21.09
2018-07-09T06:03:44.074Z,21.27
2018-07-09T06:06:13.044Z,21.36
2018-07-09T06:08:41.944Z,21.66
2018-07-09T06:11:10.926Z,21.86
2018-07-09T06:13:39.832Z,22.36
2018-07-09T06:16:08.687Z,23.27
2018-07-09T06:18:37.598Z,23.91
2018-07-09T06:21:07.370Z,24.08
2018-07-09T06:23:36.307Z,24.34
2018-07-09T06:26:05.406Z,24.27
2018-07-09T06:28:34.333Z,24.45
2018-07-09T06:31:03.387Z,25.19
2018-07-09T06:33:32.332Z,24.71
2018-07-09T06:36:01.269Z,24.79
2018-07-09T06:38:30.161Z,25.63
2018-07-09T06:40:59.104Z,25.45
2018-07-09T06:43:28.069Z,25.61
2018-07-09T06:45:56.989Z,25.64
2018-07-09T06:48:25.930Z,25.71
2018-07-09T06:50:54.904Z,25.89
2018-07-09T06:53:23.787Z,24.90
2018-07-09T06:55:52.720Z,24.21
2018-07-09T06:58:21.702Z,23.69
2018-07-09T07:00:50.704Z,23.58
2018-07-09T07:03:19.675Z,23.00
2018-07-09T07:05:48.740Z,23.03
2018-07-09T07:08:17.606Z,22.93
2018-07-09T07:10:46.541Z,22.92
2018-07-09T07:13:15.556Z,22.51
2018-07-09T07:15:44.515Z,23.11
2018-07-09T07:18:13.441Z,24.23
2018-07-09T07:20:42.399Z,24.72
2018-07-09T07:23:11.326Z,24.52
2018-07-09T07:25:40.253Z,24.71
2018-07-09T07:28:09.177Z,24.42
2018-07-09T07:30:39.151Z,24.68
2018-07-09T07:33:08.069Z,25.23
2018-07-09T07:35:36.985Z,25.42
2018-07-09T07:38:06.040Z,25.38
2018-07-09T07:40:34.975Z,25.91
2018-07-09T07:43:03.960Z,26.85
2018-07-09T07:45:32.897Z,26.91
2018-07-09T07:48:01.849Z,26.76
2018-07-09T07:50:31.007Z,27.01
2018-07-09T07:52:59.777Z,27.09
2018-07-09T07:55:28.745Z,27.64
2018-07-09T07:57:57.676Z,27.61
2018-07-09T08:00:26.639Z,27.91
2018-07-09T08:02:55.576Z,27.81
2018-07-09T08:05:28.352Z,28.53
2018-07-09T08:07:57.297Z,28.10
2018-07-09T08:10:26.189Z,28.42
2018-07-09T08:13:27.169Z,27.98
2018-07-09T08:15:24.159Z,28.20
2018-07-09T08:17:53.154Z,28.24
2018-07-09T08:20:22.080Z,28.70
2018-07-09T08:22:50.991Z,28.17
2018-07-09T08:25:19.930Z,29.06
2018-07-09T08:27:48.875Z,28.73
2018-07-09T08:30:17.796Z,29.47
2018-07-09T08:32:46.718Z,29.29
2018-07-09T08:35:15.645Z,29.13
2018-07-09T08:37:44.569Z,29.06
2018-07-09T08:40:13.918Z,29.09
2018-07-09T08:42:42.840Z,28.73
2018-07-09T08:45:11.893Z,28.98
2018-07-09T08:47:40.792Z,29.40
2018-07-09T08:50:09.679Z,29.48
2018-07-09T08:52:38.596Z,29.89
2018-07-09T08:55:07.564Z,29.95
2018-07-09T08:57:36.521Z,30.51
2018-07-09T09:00:05.431Z,31.04
2018-07-09T09:02:34.400Z,30.02
2018-07-09T09:05:03.323Z,30.22
2018-07-09T09:07:32.260Z,30.15
2018-07-09T09:10:01.224Z,29.42
2018-07-09T09:12:30.114Z,30.03
2018-07-09T09:14:59.074Z,30.50
2018-07-09T09:17:28.075Z,30.57
2018-07-09T09:19:57.019Z,30.23
2018-07-09T09:22:25.928Z,30.03
2018-07-09T09:24:54.865Z,29.86
2018-07-09T09:27:23.780Z,29.87
2018-07-09T09:29:52.705Z,30.06
2018-07-09T09:32:21.696Z,30.91
2018-07-09T09:34:50.619Z,30.85
2018-07-09T09:37:19.580Z,30.30
2018-07-09T09:39:48.452Z,30.57
2018-07-09T09:42:17.392Z,29.77
2018-07-09T09:44:46.308Z,29.98
2018-07-09T09:47:15.223Z,29.08
2018-07-09T09:49:44.145Z,29.62
2018-07-09T09:52:13.061Z,29.89
2018-07-09T09:54:41.972Z,29.89
2018-07-09T09:57:10.917Z,29.67
2018-07-09T09:59:39.858Z,30.21
2018-07-09T10:02:08.770Z,30.10
2018-07-09T10:04:37.716Z,30.08
2018-07-09T10:07:06.625Z,29.93
2018-07-09T10:09:35.544Z,29.91
2018-07-09T10:12:04.428Z,30.47
2018-07-09T10:14:33.357Z,31.34
2018-07-09T10:17:02.266Z,30.87
2018-07-09T10:19:31.166Z,31.41
2018-07-09T10:22:00.161Z,31.93
2018-07-09T10:24:29.086Z,31.04
2018-07-09T10:26:57.990Z,30.39
2018-07-09T10:29:26.933Z,30.07
2018-07-09T10:31:55.868Z,28.90
2018-07-09T10:34:24.811Z,27.54
2018-07-09T10:36:53.706Z,27.70
2018-07-09T10:39:22.835Z,28.02
2018-07-09T10:41:51.817Z,28.54
2018-07-09T10:44:20.739Z,28.92
2018-07-09T10:46:49.685Z,29.59
2018-07-09T10:49:18.749Z,29.99
2018-07-09T10:51:47.677Z,31.30
2018-07-09T10:54:16.587Z,31.59
2018-07-09T10:56:45.480Z,31.45
2018-07-09T10:59:14.415Z,31.18
2018-07-09T11:01:43.408Z,31.20
2018-07-09T11:04:12.321Z,31.41
2018-07-09T11:06:41.220Z,31.60
2018-07-09T11:09:10.129Z,31.22
2018-07-09T11:11:39.074Z,30.48
2018-07-09T11:14:07.972Z,30.52
2018-07-09T11:16:36.897Z,29.79
2018-07-09T11:19:05.876Z,30.15
2018-07-09T11:21:34.809Z,30.75
2018-07-09T11:24:03.694Z,30.75
2018-07-09T11:26:32.632Z,30.10
2018-07-09T11:29:01.649Z,30.57
2018-07-09T11:31:30.812Z,30.69
2018-07-09T11:33:59.714Z,31.79
2018-07-09T11:36:28.685Z,31.55
2018-07-09T11:38:57.915Z,31.58
2018-07-09T11:41:27.052Z,31.36
2018-07-09T11:43:55.957Z,31.23
2018-07-09T11:46:24.886Z,31.16
2018-07-09T11:48:53.817Z,31.17
2018-07-09T11:51:22.761Z,31.64
2018-07-09T11:53:51.681Z,31.56
2018-07-09T11:56:20.665Z,30.64
2018-07-09T11:58:49.695Z,29.97
2018-07-09T12:01:18.686Z,29.94
2018-07-09T12:03:47.888Z,30.34
2018-07-09T12:06:16.821Z,30.00
2018-07-09T12:08:45.760Z,29.65
2018-07-09T12:11:14.833Z,29.79
2018-07-09T12:13:43.770Z,29.84
2018-07-09T12:16:12.676Z,29.19
2018-07-09T12:18:41.584Z,29.01
2018-07-09T12:21:10.480Z,28.53
2018-07-09T12:23:39.383Z,28.36
2018-07-09T12:26:08.281Z,28.42
2018-07-09T12:28:37.245Z,29.25
2018-07-09T12:31:06.228Z,29.40
2018-07-09T12:33:35.128Z,29.59
2018-07-09T12:36:04.967Z,29.41
2018-07-09T12:38:33.859Z,29.74
2018-07-09T12:41:02.781Z,30.01
2018-07-09T12:43:31.680Z,30.53
2018-07-09T12:46:00.605Z,30.19
2018-07-09T12:48:29.555Z,29.74
2018-07-09T12:50:58.512Z,29.92
2018-07-09T12:53:27.439Z,30.39
2018-07-09T12:55:56.499Z,30.46
2018-07-09T12:58:25.613Z,30.51
2018-07-09T13:00:54.636Z,31.00
2018-07-09T13:03:23.967Z,30.74
2018-07-09T13:05:52.895Z,30.05
2018-07-09T13:08:21.810Z,29.90
2018-07-09T13:10:50.781Z,30.11
2018-07-09T13:13:19.702Z,30.32
2018-07-09T13:15:48.624Z,30.55
2018-07-09T13:18:17.526Z,30.21
2018-07-09T13:20:46.425Z,30.38
2018-07-09T13:23:15.355Z,30.70
2018-07-09T13:25:44.298Z,30.58
2018-07-09T13:28:13.451Z,30.38
2018-07-09T13:30:42.403Z,30.28
2018-07-09T13:33:11.321Z,30.42
2018-07-09T13:35:40.212Z,30.86
2018-07-09T13:38:09.213Z,30.70
2018-07-09T13:40:38.107Z,30.98
2018-07-09T13:43:07.065Z,31.00
2018-07-09T13:45:36.044Z,31.10
2018-07-09T13:48:10.611Z,30.41
2018-07-09T13:50:39.537Z,30.35
2018-07-09T13:53:08.472Z,30.49
2018-07-09T13:55:37.383Z,30.79
2018-07-09T13:58:06.289Z,31.16
2018-07-09T14:00:35.231Z,30.70
2018-07-09T14:03:04.138Z,31.11
2018-07-09T14:05:33.075Z,30.50
2018-07-09T14:08:02.038Z,31.29
2018-07-09T14:10:31.019Z,31.47
2018-07-09T14:12:59.984Z,31.28
2018-07-09T14:15:28.955Z,31.45
2018-07-09T14:17:57.913Z,31.02
2018-07-09T14:20:29.577Z,30.51
2018-07-09T14:22:59.003Z,30.36
2018-07-09T14:25:27.913Z,30.86
2018-07-09T14:27:56.850Z,31.29
2018-07-09T14:30:25.845Z,31.15
2018-07-09T14:32:54.897Z,30.99
2018-07-09T14:35:23.822Z,31.32
2018-07-09T14:37:53.029Z,30.69
2018-07-09T14:40:22.090Z,30.53
2018-07-09T14:42:51.057Z,30.52
2018-07-09T14:45:20.012Z,30.24
2018-07-09T14:47:49.006Z,30.00
2018-07-09T14:50:18.020Z,30.31
2018-07-09T14:52:47.007Z,30.64
2018-07-09T14:55:15.966Z,30.85
2018-07-09T14:57:44.940Z,30.33
2018-07-09T15:00:13.893Z,30.43
2018-07-09T15:02:42.850Z,29.78
2018-07-09T15:05:11.833Z,30.03
2018-07-09T15:07:40.745Z,30.44
2018-07-09T15:10:09.709Z,30.50
2018-07-09T15:12:38.700Z,29.87
2018-07-09T15:15:07.688Z,30.42
2018-07-09T15:17:36.590Z,30.24
2018-07-09T15:20:05.577Z,30.44
2018-07-09T15:22:34.571Z,30.08
2018-07-09T15:25:03.530Z,29.93
2018-07-09T15:27:32.460Z,30.24
2018-07-09T15:30:01.495Z,30.47
2018-07-09T15:32:31.473Z,30.00
2018-07-09T15:35:00.520Z,30.43
2018-07-09T15:37:29.821Z,30.08
2018-07-09T15:39:58.751Z,29.80
2018-07-09T15:42:27.747Z,29.52
2018-07-09T15:44:56.605Z,29.10
2018-07-09T15:47:25.540Z,29.00
2018-07-09T15:49:54.431Z,28.97
2018-07-09T15:52:23.406Z,29.28
2018-07-09T15:54:52.298Z,29.02
2018-07-09T15:57:21.260Z,28.86
2018-07-09T15:59:50.216Z,28.94
2018-07-09T16:02:19.158Z,28.49
2018-07-09T16:04:48.075Z,28.56
2018-07-09T16:07:16.981Z,28.76
2018-07-09T16:09:45.895Z,28.50
2018-07-09T16:12:14.899Z,28.25
2018-07-09T16:14:43.813Z,28.18
2018-07-09T16:17:12.749Z,28.16
2018-07-09T16:19:41.652Z,27.81
2018-07-09T16:22:10.690Z,27.73
2018-07-09T16:24:39.664Z,27.59
2018-07-09T16:27:08.673Z,27.34
2018-07-09T16:29:37.641Z,27.21
2018-07-09T16:32:06.553Z,26.87
2018-07-09T16:34:35.474Z,26.82
2018-07-09T16:37:04.373Z,26.83
2018-07-09T16:39:33.315Z,26.73
2018-07-09T16:42:02.149Z,26.67
2018-07-09T16:44:31.088Z,26.54
2018-07-09T16:46:59.989Z,26.39
2018-07-09T16:49:28.876Z,26.31
2018-07-09T16:51:57.783Z,26.23
2018-07-09T16:54:26.697Z,26.15
2018-07-09T16:56:55.601Z,25.84
2018-07-09T16:59:24.500Z,25.76
2018-07-09T17:01:53.405Z,25.49
2018-07-09T17:04:22.344Z,25.31
2018-07-09T17:06:51.288Z,25.17
2018-07-09T17:09:20.203Z,25.09
2018-07-09T17:11:49.105Z,24.89
2018-07-09T17:14:18.131Z,24.69
2018-07-09T17:16:47.265Z,24.68
2018-07-09T17:19:16.205Z,24.55
2018-07-09T17:21:45.146Z,24.47
2018-07-09T17:24:14.076Z,24.58
2018-07-09T17:26:43.016Z,24.61
2018-07-09T17:29:11.876Z,24.66
2018-07-09T17:31:40.800Z,24.65
2018-07-09T17:34:09.708Z,24.62
2018-07-09T17:36:38.620Z,24.56
2018-07-09T17:39:07.643Z,24.49
2018-07-09T17:41:36.663Z,24.48
2018-07-09T17:44:05.716Z,24.57
2018-07-09T17:46:34.582Z,24.63
2018-07-09T17:49:03.483Z,24.57
2018-07-09T17:51:32.382Z,24.53
2018-07-09T17:54:01.314Z,24.50
2018-07-09T17:56:30.265Z,24.51
2018-07-09T17:58:59.201Z,24.47
2018-07-09T18:01:28.163Z,24.36
2018-07-09T18:03:57.243Z,24.27
2018-07-09T18:06:26.170Z,24.24
2018-07-09T18:08:55.065Z,24.08
2018-07-09T18:11:23.994Z,23.92
2018-07-09T18:13:52.946Z,23.72
2018-07-09T18:16:21.857Z,23.62
2018-07-09T18:18:50.753Z,23.52
2018-07-09T18:21:19.662Z,23.37
2018-07-09T18:23:48.596Z,23.24
2018-07-09T18:26:17.530Z,23.07
2018-07-09T18:28:46.453Z,22.99
2018-07-09T18:31:15.390Z,22.86
2018-07-09T18:33:44.280Z,22.77
2018-07-09T18:36:13.175Z,22.70
2018-07-09T18:38:42.671Z,22.69
2018-07-09T18:41:11.477Z,22.56
2018-07-09T18:43:40.363Z,22.47
2018-07-09T18:46:09.268Z,22.43
2018-07-09T18:48:38.229Z,22.27
2018-07-09T18:51:07.064Z,22.10
2018-07-09T18:53:35.952Z,22.08
2018-07-09T18:56:05.052Z,22.05
2018-07-09T18:58:34.141Z,22.04
2018-07-09T19:01:02.846Z,21.98
2018-07-09T19:03:37.583Z,21.99
2018-07-09T19:06:46.080Z,21.91
2018-07-09T19:11:42.763Z,21.69
2018-07-09T19:14:12.363Z,21.62
2018-07-09T19:16:52.986Z,21.56
2018-07-09T19:19:34.281Z,21.48
2018-07-09T19:22:03.790Z,21.35
2018-07-09T19:24:32.253Z,21.27
2018-07-09T19:27:00.945Z,21.22
2018-07-09T19:29:28.942Z,21.19
2018-07-09T19:31:56.899Z,21.13
2018-07-09T19:34:24.849Z,21.09
2018-07-09T19:36:52.901Z,21.02
2018-07-09T19:39:20.748Z,20.98
2018-07-09T19:41:48.809Z,20.90
2018-07-09T19:44:16.690Z,20.82
2018-07-09T19:46:44.642Z,20.79
2018-07-09T19:49:12.693Z,20.71
2018-07-09T19:51:40.641Z,20.65
2018-07-09T19:54:08.612Z,20.64
2018-07-09T19:56:36.621Z,20.59
2018-07-09T19:59:04.645Z,20.52
2018-07-09T20:01:32.628Z,20.51
2018-07-09T20:04:00.711Z,20.40
2018-07-09T20:06:28.650Z,20.33
2018-07-09T20:09:02.113Z,20.29
2018-07-09T20:11:35.534Z,20.25
2018-07-09T20:14:08.952Z,20.19
2018-07-09T20:16:42.358Z,20.12
2018-07-09T20:19:10.717Z,20.10
2018-07-09T20:21:38.678Z,20.01
2018-07-09T20:24:06.629Z,19.98
2018-07-09T20:26:34.620Z,19.92
2018-07-09T20:29:02.682Z,19.84
2018-07-09T20:31:30.635Z,19.79
2018-07-09T20:33:58.622Z,19.67
2018-07-09T20:36:26.565Z,19.66
2018-07-09T20:38:54.540Z,19.60
2018-07-09T20:41:23.413Z,19.50
2018-07-09T20:43:51.386Z,19.44
2018-07-09T20:46:19.453Z,19.41
2018-07-09T20:48:47.443Z,19.32
2018-07-09T20:51:15.489Z,19.29
2018-07-09T20:53:43.442Z,19.23
2018-07-09T20:56:11.391Z,19.21
2018-07-09T20:58:39.572Z,19.14
2018-07-09T21:01:07.547Z,19.04
2018-07-09T21:03:35.513Z,18.98
2018-07-09T21:06:03.473Z,18.92
2018-07-09T21:08:31.443Z,18.89
2018-07-09T21:10:59.406Z,18.86
2018-07-09T21:13:30.588Z,18.75
2018-07-09T21:15:58.713Z,18.68
2018-07-09T21:18:26.816Z,18.68
2018-07-09T21:20:54.812Z,18.61
2018-07-09T21:23:22.776Z,18.65
2018-07-09T21:25:50.743Z,18.60
2018-07-09T21:28:18.762Z,18.60
2018-07-09T21:30:46.739Z,18.59
2018-07-09T21:33:14.695Z,18.55
2018-07-09T21:35:42.709Z,18.50
2018-07-09T21:38:10.655Z,18.46
2018-07-09T21:40:38.629Z,18.40
2018-07-09T21:43:06.683Z,18.40
2018-07-09T21:45:34.643Z,18.36
2018-07-09T21:48:10.564Z,18.34
2018-07-09T21:50:30.592Z,18.32
2018-07-09T21:55:32.760Z,18.28
2018-07-09T21:58:00.719Z,18.19
2018-07-09T22:00:28.943Z,18.16
2018-07-09T22:02:56.936Z,18.10
2018-07-09T22:05:25.073Z,18.09
2018-07-09T22:07:53.032Z,18.09
2018-07-09T22:10:20.987Z,18.07
2018-07-09T22:12:48.940Z,18.04
2018-07-09T22:15:16.910Z,18.07
2018-07-09T22:17:44.855Z,18.03
2018-07-09T22:20:12.928Z,18.02
2018-07-09T22:22:40.889Z,18.04
2018-07-09T22:25:08.868Z,18.00
2018-07-09T22:27:36.818Z,18.02
2018-07-09T22:30:04.848Z,17.99
2018-07-09T22:32:33.744Z,17.98
2018-07-09T22:35:02.652Z,17.98
2018-07-09T22:37:31.732Z,18.04
2018-07-09T22:40:00.651Z,18.02
2018-07-09T22:42:29.512Z,18.05
2018-07-09T22:44:58.479Z,18.05
2018-07-09T22:47:27.395Z,17.99
2018-07-09T22:49:56.299Z,18.09
2018-07-09T22:52:25.251Z,18.11
2018-07-09T22:55:05.539Z,18.18
2018-07-09T22:57:34.412Z,18.19
2018-07-09T23:00:03.336Z,18.22
2018-07-09T23:02:32.249Z,18.28
2018-07-09T23:05:01.139Z,18.30
2018-07-09T23:07:30.054Z,18.33
2018-07-09T23:10:13.152Z,18.34
2018-07-09T23:16:37.435Z,18.33
2018-07-09T23:19:21.168Z,18.35
2018-07-09T23:22:01.578Z,18.30
2018-07-09T23:24:29.562Z,18.32
2018-07-09T23:26:57.773Z,18.39
2018-07-09T23:29:25.770Z,18.40
2018-07-09T23:31:53.738Z,18.40
2018-07-09T23:34:21.830Z,18.37
2018-07-09T23:36:49.807Z,18.46
2018-07-09T23:39:17.749Z,18.47
2018-07-09T23:41:45.730Z,18.48
2018-07-09T23:44:13.729Z,18.44
2018-07-09T23:46:41.721Z,18.47
2018-07-09T23:49:09.688Z,18.48
2018-07-09T23:51:37.911Z,18.43
2018-07-09T23:54:05.890Z,18.40
2018-07-09T23:58:49.512Z,18.35
